SBMTSBSJ

Guest
Details From SBMT - MARTE
To SBSJ - Sao Jose Dos Campos
Flight Number -
Tags generated
Created
Modified
Stats Distance 46 nm / 85 km
Max Altitude 5,400 ft / 1,646 m
Waypoints 3
Social Downloads 2
Likes 0
Share VATSIM

Download

Looking for another format? Having issues loading an existing format? Contact us
Advertisement - Login to hide

Notes

Basic altitude profile: - Ascent Rate: 700ft/min - Ascent Speed: 70kts - Cruise Altitude: 8000ft - Cruise Speed: 100kts - Descent Rate: 1500ft/min - Descent Speed: 60kts Options: - Use NATs: no - Use PACOTS: no - Use low airways: no - Use high airways: yes

Route

SBMT BCO SBSJ

ID Type Via Altitude Latitude Longitude Leg Dist Tot Dist Heading (true) Name
O SBMT APT - 0 ft / 0 m -23.50912˚ -46.63775˚ - 0 nm - MARTE
BCO VOR - 5,400 ft / 1,646 m -23.40633˚ -46.38550˚ 15 nm 15 nm 66° / 66° BONSUCESSO VOR-DME
O SBSJ APT - 0 ft / 0 m -23.22817˚ -45.86274˚ 30 nm 45 nm 70° / 70° Sao Jose Dos Campos

Altitude Profile

Advertisement - Login to hide

SBMT

Details ICAO SBMT
Name MARTE
Region Brazil
Timezone America/Sao_Paulo (UTC-2.0)
Stats Elevation 2,368 ft / 722 m (AMSL)
Location -23.509120° -46.637754°
Runways 1
Magnetic Variation 21.325° W

METAR

SBMT 141400Z 33003KT 9999 SCT040 27/17 Q1019

Decode

TAF

Not found

Departure Runways

ID Width Length Bearing (true) Bearing (mag) Surface Threshold Offset Overrun Length
12 148 ft / 45 m 5,241 ft / 1,597 m 100.34° 121.67° Asphalt 985 ft / 300 m 0 ft / 0 m
30 148 ft / 45 m 5,241 ft / 1,597 m 280.33° 301.66° Asphalt 490 ft / 149 m 0 ft / 0 m

SBSJ

Details ICAO SBSJ (SJK)
Name Sao Jose Dos Campos
Region Brazil
Timezone America/Sao_Paulo (UTC-2.0)
Stats Elevation 2,120 ft / 646 m (AMSL)
Location -23.228171° -45.862738°
Runways 1
Magnetic Variation 21.709° W

METAR

SBSJ 141500Z 24003KT 9999 FEW025 27/18 Q1018

Decode

TAF

TAF SBSJ 140800Z 1412/1512 09005KT 9999 FEW025 TX28/1417Z TN17/1508Z TEMPO 1417/1423 15013KT SCT030 PROB30 1509/1511 00000KT 4000 BR BKN015 RMK PGX

Decode

Destination Runways

ID Width Length Bearing (true) Bearing (mag) Surface Threshold Offset Overrun Length
15 148 ft / 45 m 8,741 ft / 2,664 m 135.13° 156.84° Asphalt 0 ft / 0 m 0 ft / 0 m
33 148 ft / 45 m 8,741 ft / 2,664 m 315.12° 336.83° Asphalt 0 ft / 0 m 0 ft / 0 m

Approach Navaids

Runway Type Ident Frequency Range Bearing (true) Bearing (mag) Slope Elevation
15 Localiser ISJ 110.30 MHz 18 nm / 33 km 134.95° 156.66° - 2,120 ft / 646 m (AMSL)
15 Glidescope ISJ 110.30 MHz 10 nm / 19 km 135.13° 156.84° 3.00° 2,120 ft / 646 m (AMSL)
15 DME ISJ 110.30 MHz 18 nm / 33 km - - - 2,120 ft / 646 m (AMSL)

Popular Alternatives